Time;durP1;ratioP1;P1;durP2;ratioP2;P2;SDS_P1;SDS_P2;PMS_P1;PMS_P2;Temp;Humidity;BMP_temperature;BMP_pressure;BME280_temperature;BME280_humidity;BME280_pressure;Samples;Min_cycle;Max_cycle;Signal;HPM_P1;HPM_P2
2022/12/08 00:01:33;;;;;;;18.90;12.90;;;;;;;;;;4974342;28;20197;-81
2022/12/08 00:04:00;;;;;;;19.83;13.40;;;;;;;;;;4958089;28;20233;-80
2022/12/08 00:09:24;;;;;;;14.97;13.30;;;;;;;;;;4975855;28;20181;-85
2022/12/08 00:12:08;;;;;;;18.40;13.83;;;;;;;;;;4958217;28;20174;-85
2022/12/08 00:14:38;;;;;;;16.33;12.80;;;;;;;;;;4958240;28;20178;-85
2022/12/08 00:17:05;;;;;;;17.70;13.30;;;;;;;;;;4958348;28;20179;-86
2022/12/08 00:19:31;;;;;;;14.97;12.50;;;;;;;;;;4975446;28;20233;-85
2022/12/08 00:21:57;;;;;;;18.93;14.17;;;;;;;;;;4975290;28;20183;-85
2022/12/08 00:24:25;;;;;;;15.13;13.40;;;;;;;;;;4974085;28;20218;-83
2022/12/08 00:26:51;;;;;;;18.03;13.77;;;;;;;;;;4958089;28;20174;-83
2022/12/08 00:29:17;;;;;;;16.03;13.73;;;;;;;;;;4958698;28;20178;-83
2022/12/08 00:31:44;;;;;;;14.97;13.43;;;;;;;;;;4975156;28;20222;-83
2022/12/08 00:34:11;;;;;;;16.03;13.93;;;;;;;;;;4973946;28;20197;-83
2022/12/08 00:36:37;;;;;;;17.90;13.43;;;;;;;;;;4957888;28;20187;-83
2022/12/08 00:39:03;;;;;;;17.87;12.83;;;;;;;;;;4990249;28;20179;-83
2022/12/08 00:44:34;;;;;;;15.43;12.63;;;;;;;;;;4926481;29;20223;-83
2022/12/08 00:47:00;;;;;;;19.93;13.40;;;;;;;;;;4918948;29;20325;-83
2022/12/08 00:49:26;;;;;;;17.43;14.37;;;;;;;;;;4943214;28;20191;-83
2022/12/08 00:51:52;;;;;;;19.33;14.77;;;;;;;;;;4945246;29;20195;-83
2022/12/08 00:54:18;;;;;;;20.03;17.63;;;;;;;;;;4970870;28;20188;-83
2022/12/08 00:56:45;;;;;;;25.57;20.93;;;;;;;;;;4955808;29;20242;-82
2022/12/08 00:59:11;;;;;;;22.30;18.43;;;;;;;;;;4970793;28;20191;-81
2022/12/08 01:01:37;;;;;;;19.30;16.57;;;;;;;;;;4955714;29;20191;-81
2022/12/08 01:04:04;;;;;;;17.20;13.27;;;;;;;;;;4938601;29;20203;-81
2022/12/08 01:06:30;;;;;;;15.63;12.23;;;;;;;;;;4938503;29;20226;-81
2022/12/08 01:08:56;;;;;;;13.13;11.83;;;;;;;;;;4938856;29;20266;-81
2022/12/08 01:11:22;;;;;;;12.70;10.73;;;;;;;;;;4957061;28;20266;-81
2022/12/08 01:13:48;;;;;;;12.90;9.70;;;;;;;;;;4942247;29;20184;-81
2022/12/08 01:16:22;;;;;;;11.17;9.67;;;;;;;;;;4974266;28;20183;-81
2022/12/08 01:18:48;;;;;;;13.57;9.73;;;;;;;;;;4974417;28;20184;-81
2022/12/08 01:21:15;;;;;;;14.43;9.40;;;;;;;;;;4973987;28;20175;-81
2022/12/08 01:23:41;;;;;;;14.17;9.60;;;;;;;;;;4958901;29;20210;-81
2022/12/08 01:26:08;;;;;;;12.40;9.37;;;;;;;;;;4958186;29;20187;-81
2022/12/08 01:28:34;;;;;;;12.70;9.20;;;;;;;;;;4974147;28;20273;-81
2022/12/08 01:31:01;;;;;;;12.57;10.70;;;;;;;;;;4971944;28;20319;-86
2022/12/08 01:33:27;;;;;;;11.73;10.53;;;;;;;;;;4942187;29;20187;-86
2022/12/08 01:35:54;;;;;;;16.60;10.87;;;;;;;;;;4941846;29;20199;-86
2022/12/08 01:38:20;;;;;;;12.40;11.20;;;;;;;;;;4941726;29;20186;-86
2022/12/08 01:40:47;;;;;;;14.27;11.37;;;;;;;;;;4941738;29;20175;-86
2022/12/08 01:43:15;;;;;;;13.77;12.27;;;;;;;;;;4942100;29;20179;-86
2022/12/08 01:45:41;;;;;;;17.63;12.60;;;;;;;;;;4958665;29;20210;-87
2022/12/08 01:48:10;;;;;;;13.83;12.47;;;;;;;;;;4957313;29;20190;-80
2022/12/08 01:50:37;;;;;;;18.97;13.47;;;;;;;;;;4960630;28;20229;-81
2022/12/08 01:53:23;;;;;;;16.73;13.47;;;;;;;;;;4977112;28;20174;-80
2022/12/08 01:55:57;;;;;;;18.43;14.40;;;;;;;;;;4948857;28;20198;-81
2022/12/08 01:58:29;;;;;;;19.40;14.20;;;;;;;;;;4957320;29;20186;-80
2022/12/08 02:00:55;;;;;;;17.80;15.57;;;;;;;;;;4941334;29;20179;-80
2022/12/08 02:03:29;;;;;;;21.90;15.93;;;;;;;;;;4942285;28;20198;-81
2022/12/08 02:05:55;;;;;;;17.50;15.63;;;;;;;;;;4966031;28;20277;-81
2022/12/08 02:08:22;;;;;;;21.67;16.77;;;;;;;;;;4955255;28;20229;-80
2022/12/08 02:10:49;;;;;;;19.60;16.83;;;;;;;;;;4955841;28;20201;-81
2022/12/08 02:13:17;;;;;;;23.33;18.43;;;;;;;;;;4958118;29;20176;-81
2022/12/08 02:15:43;;;;;;;20.83;18.50;;;;;;;;;;4957168;29;20211;-81
2022/12/08 02:18:21;;;;;;;21.07;17.70;;;;;;;;;;4956811;29;20215;-80
2022/12/08 02:20:52;;;;;;;21.83;18.47;;;;;;;;;;4957721;28;20187;-81
2022/12/08 02:23:37;;;;;;;23.13;18.80;;;;;;;;;;4959475;28;20237;-81
2022/12/08 02:26:31;;;;;;;22.80;18.33;;;;;;;;;;4959740;28;20190;-81
2022/12/08 02:29:08;;;;;;;22.97;19.37;;;;;;;;;;4977069;28;20183;-81
2022/12/08 02:32:05;;;;;;;23.70;19.33;;;;;;;;;;4967476;28;20226;-81
2022/12/08 02:34:34;;;;;;;23.87;18.67;;;;;;;;;;4976778;28;20221;-81
2022/12/08 02:37:07;;;;;;;25.03;20.10;;;;;;;;;;4960272;28;20190;-81
2022/12/08 02:39:39;;;;;;;22.87;18.67;;;;;;;;;;4960090;28;20189;-81
2022/12/08 02:42:12;;;;;;;22.20;18.80;;;;;;;;;;4941404;28;20199;-81
2022/12/08 02:44:41;;;;;;;23.30;18.33;;;;;;;;;;4967464;28;20252;-81
2022/12/08 02:47:09;;;;;;;27.10;20.57;;;;;;;;;;4966308;28;20196;-81
2022/12/08 02:49:36;;;;;;;22.00;18.67;;;;;;;;;;4945250;28;20179;-81
2022/12/08 02:52:08;;;;;;;24.83;18.77;;;;;;;;;;4981878;28;20191;-81
2022/12/08 02:54:35;;;;;;;23.87;17.57;;;;;;;;;;4985868;28;20196;-81
2022/12/08 02:57:04;;;;;;;19.87;17.33;;;;;;;;;;4977147;28;20229;-80
2022/12/08 02:59:30;;;;;;;21.50;17.97;;;;;;;;;;4959835;28;20278;-81
2022/12/08 03:02:08;;;;;;;18.87;16.50;;;;;;;;;;4959499;28;20281;-81
2022/12/08 03:04:50;;;;;;;24.10;17.00;;;;;;;;;;4945090;29;20225;-81
2022/12/08 03:07:23;;;;;;;18.40;15.17;;;;;;;;;;4959091;28;20192;-80
2022/12/08 03:09:55;;;;;;;19.63;16.00;;;;;;;;;;4959672;28;20186;-81
2022/12/08 03:12:28;;;;;;;19.63;15.07;;;;;;;;;;4947115;29;20191;-81
2022/12/08 03:14:56;;;;;;;16.50;12.73;;;;;;;;;;4940127;29;20235;-81
2022/12/08 03:17:24;;;;;;;17.10;13.43;;;;;;;;;;4945837;28;20191;-81
2022/12/08 03:19:51;;;;;;;15.47;13.17;;;;;;;;;;4966605;28;20195;-81
2022/12/08 03:22:20;;;;;;;17.13;13.20;;;;;;;;;;4972794;28;20199;-81
2022/12/08 03:24:46;;;;;;;17.10;13.60;;;;;;;;;;4958754;28;20226;-81
2022/12/08 03:27:17;;;;;;;17.00;13.13;;;;;;;;;;4958646;28;20283;-81
2022/12/08 03:29:47;;;;;;;18.13;13.77;;;;;;;;;;4967133;28;20189;-80
2022/12/08 03:32:19;;;;;;;17.00;13.23;;;;;;;;;;4955248;28;20235;-80
2022/12/08 03:34:46;;;;;;;18.17;14.07;;;;;;;;;;4987166;28;20201;-81
2022/12/08 03:37:12;;;;;;;15.83;13.60;;;;;;;;;;4964479;28;20186;-80
2022/12/08 03:39:38;;;;;;;16.70;13.30;;;;;;;;;;4949558;28;20194;-80
2022/12/08 03:42:04;;;;;;;17.33;13.80;;;;;;;;;;4966078;28;20195;-80
2022/12/08 03:44:30;;;;;;;18.73;13.97;;;;;;;;;;4962831;28;20222;-81
2022/12/08 03:46:56;;;;;;;17.17;14.30;;;;;;;;;;4975681;28;20270;-81
2022/12/08 03:49:22;;;;;;;18.63;13.87;;;;;;;;;;4974561;28;20189;-81
2022/12/08 03:51:48;;;;;;;16.60;14.50;;;;;;;;;;4956196;28;20187;-81
2022/12/08 03:54:14;;;;;;;18.83;14.37;;;;;;;;;;4977023;28;20232;-81
2022/12/08 03:56:40;;;;;;;20.90;15.03;;;;;;;;;;4952440;29;20221;-81
2022/12/08 03:59:07;;;;;;;18.00;13.73;;;;;;;;;;4968037;28;20194;-81
2022/12/08 04:01:33;;;;;;;16.87;14.33;;;;;;;;;;4947398;28;20226;-81
2022/12/08 04:03:59;;;;;;;15.97;12.77;;;;;;;;;;4962897;28;20214;-81
2022/12/08 04:06:25;;;;;;;14.60;12.73;;;;;;;;;;4971641;28;20183;-81
2022/12/08 04:08:51;;;;;;;14.20;12.40;;;;;;;;;;4967847;28;20190;-81
2022/12/08 04:11:18;;;;;;;14.93;12.07;;;;;;;;;;4956142;28;20198;-81
2022/12/08 04:13:45;;;;;;;16.00;11.93;;;;;;;;;;4954924;29;20187;-81
2022/12/08 04:16:19;;;;;;;13.30;11.07;;;;;;;;;;4956265;28;20175;-81
2022/12/08 04:18:45;;;;;;;13.40;10.17;;;;;;;;;;4975751;28;20253;-81
2022/12/08 04:21:11;;;;;;;11.53;9.87;;;;;;;;;;4972696;28;20186;-81
2022/12/08 04:23:37;;;;;;;11.80;10.17;;;;;;;;;;4971239;28;20195;-81
2022/12/08 04:26:03;;;;;;;10.97;9.57;;;;;;;;;;4980442;28;20256;-81
2022/12/08 04:28:29;;;;;;;10.47;8.57;;;;;;;;;;4964907;28;20206;-81
2022/12/08 04:30:55;;;;;;;9.10;8.03;;;;;;;;;;4990060;28;20190;-81
2022/12/08 04:33:21;;;;;;;9.37;8.37;;;;;;;;;;4977422;28;20191;-83
2022/12/08 04:35:47;;;;;;;9.83;7.13;;;;;;;;;;4970902;28;20251;-83
2022/12/08 04:38:13;;;;;;;7.43;6.67;;;;;;;;;;4970836;28;20187;-84
2022/12/08 04:40:39;;;;;;;9.57;7.10;;;;;;;;;;4954471;28;20195;-83
2022/12/08 04:43:05;;;;;;;6.87;5.70;;;;;;;;;;4954647;28;20258;-83
2022/12/08 04:45:32;;;;;;;6.37;5.70;;;;;;;;;;4957248;28;20234;-84
2022/12/08 04:47:58;;;;;;;7.67;5.97;;;;;;;;;;4958508;28;20187;-83
2022/12/08 04:50:25;;;;;;;6.63;6.00;;;;;;;;;;4994083;28;20198;-81
2022/12/08 04:52:51;;;;;;;6.33;5.00;;;;;;;;;;4989882;28;20190;-80
2022/12/08 04:55:17;;;;;;;7.47;4.70;;;;;;;;;;4954267;28;20203;-80
2022/12/08 04:57:43;;;;;;;4.70;4.20;;;;;;;;;;4966052;28;20303;-81
2022/12/08 05:00:09;;;;;;;6.97;4.47;;;;;;;;;;4974312;28;20295;-80
2022/12/08 05:02:35;;;;;;;8.07;4.93;;;;;;;;;;4970493;28;20203;-80
2022/12/08 05:05:01;;;;;;;6.30;5.27;;;;;;;;;;4964675;28;20210;-81
2022/12/08 05:07:27;;;;;;;8.47;6.50;;;;;;;;;;4952917;28;20187;-81
2022/12/08 05:09:53;;;;;;;7.97;6.90;;;;;;;;;;4977083;28;20253;-81
2022/12/08 05:12:19;;;;;;;11.33;8.13;;;;;;;;;;4960447;28;20188;-81
2022/12/08 05:14:46;;;;;;;9.50;8.50;;;;;;;;;;4942266;28;20245;-81
2022/12/08 05:17:12;;;;;;;9.87;8.87;;;;;;;;;;4988983;28;20262;-81
2022/12/08 05:19:39;;;;;;;9.93;8.43;;;;;;;;;;4970501;28;20199;-81
2022/12/08 05:22:05;;;;;;;9.93;8.77;;;;;;;;;;4969040;28;20191;-81
2022/12/08 05:24:30;;;;;;;9.97;8.97;;;;;;;;;;4973145;28;20218;-81
2022/12/08 05:26:57;;;;;;;11.73;9.57;;;;;;;;;;4974323;28;20211;-81
2022/12/08 05:29:23;;;;;;;10.70;9.60;;;;;;;;;;4957952;28;20228;-81
2022/12/08 05:31:49;;;;;;;10.97;9.43;;;;;;;;;;4973428;28;20231;-81
2022/12/08 05:34:15;;;;;;;10.87;9.43;;;;;;;;;;4958732;29;20210;-81
2022/12/08 05:36:41;;;;;;;12.60;10.03;;;;;;;;;;4957410;28;20191;-81
2022/12/08 05:39:07;;;;;;;11.80;10.03;;;;;;;;;;4957639;28;20206;-81
2022/12/08 05:41:33;;;;;;;13.80;10.73;;;;;;;;;;4941634;28;20191;-81
2022/12/08 05:43:59;;;;;;;11.97;10.73;;;;;;;;;;4973656;28;20207;-81
2022/12/08 05:46:25;;;;;;;12.93;10.97;;;;;;;;;;4992950;28;20189;-81
2022/12/08 05:48:51;;;;;;;12.13;10.83;;;;;;;;;;4963920;28;20170;-81
2022/12/08 05:51:18;;;;;;;11.93;10.50;;;;;;;;;;4959423;28;20322;-81
2022/12/08 05:53:44;;;;;;;11.87;10.43;;;;;;;;;;4976478;28;20185;-81
2022/12/08 05:56:10;;;;;;;11.47;9.67;;;;;;;;;;4977025;28;20185;-81
2022/12/08 05:58:36;;;;;;;10.93;9.27;;;;;;;;;;4960130;28;20186;-83
2022/12/08 06:01:02;;;;;;;10.53;7.77;;;;;;;;;;4949425;28;20195;-83
2022/12/08 06:03:28;;;;;;;7.80;6.63;;;;;;;;;;4956632;29;20282;-83
2022/12/08 06:05:54;;;;;;;12.67;7.40;;;;;;;;;;4974410;28;20254;-83
2022/12/08 06:08:20;;;;;;;9.30;8.30;;;;;;;;;;4973897;28;20183;-83
2022/12/08 06:10:46;;;;;;;8.90;7.73;;;;;;;;;;4992371;28;20194;-83
2022/12/08 06:13:13;;;;;;;12.30;8.40;;;;;;;;;;4992434;28;20189;-83
2022/12/08 06:15:39;;;;;;;6.50;5.90;;;;;;;;;;4977183;28;20261;-87
2022/12/08 06:18:06;;;;;;;6.40;5.80;;;;;;;;;;4979702;28;20229;-87
2022/12/08 06:20:32;;;;;;;4.23;3.83;;;;;;;;;;4983713;28;20273;-86
2022/12/08 06:22:58;;;;;;;6.47;4.90;;;;;;;;;;4976624;28;20430;-87
2022/12/08 06:25:24;;;;;;;4.53;3.63;;;;;;;;;;4960422;28;20270;-86
2022/12/08 06:27:50;;;;;;;5.13;3.47;;;;;;;;;;4991719;28;20179;-86
2022/12/08 06:30:17;;;;;;;3.20;2.93;;;;;;;;;;4958901;28;20285;-81
2022/12/08 06:32:43;;;;;;;3.07;2.83;;;;;;;;;;4977919;28;20304;-81
2022/12/08 06:35:09;;;;;;;6.43;3.10;;;;;;;;;;4969280;28;20179;-81
2022/12/08 06:37:35;;;;;;;3.40;2.95;;;;;;;;;;4982950;28;20418;-81
2022/12/08 06:40:01;;;;;;;3.47;2.20;;;;;;;;;;4967473;28;20693;-81
2022/12/08 06:42:42;;;;;;;4.20;3.00;;;;;;;;;;4966532;28;20182;-80
2022/12/08 06:45:09;;;;;;;8.97;6.87;;;;;;;;;;4952554;28;20327;-81
2022/12/08 06:47:35;;;;;;;8.37;7.07;;;;;;;;;;4965925;28;20178;-87
2022/12/08 06:50:01;;;;;;;4.10;2.37;;;;;;;;;;4952288;28;20191;-86
2022/12/08 06:52:27;;;;;;;2.27;1.80;;;;;;;;;;4973095;28;20179;-86
2022/12/08 06:54:53;;;;;;;2.93;2.63;;;;;;;;;;4966019;28;20281;-86
2022/12/08 06:57:19;;;;;;;6.03;5.17;;;;;;;;;;4947344;28;20187;-86
2022/12/08 06:59:45;;;;;;;3.63;2.27;;;;;;;;;;4984128;28;20212;-86
2022/12/08 07:02:11;;;;;;;3.40;3.00;;;;;;;;;;4951195;28;20214;-81
2022/12/08 07:04:37;;;;;;;3.03;2.17;;;;;;;;;;4967208;28;20214;-81
2022/12/08 07:07:03;;;;;;;2.70;2.00;;;;;;;;;;4983031;28;20186;-81
2022/12/08 07:09:29;;;;;;;1.90;1.80;;;;;;;;;;4951154;28;20193;-81
2022/12/08 07:11:55;;;;;;;2.97;1.97;;;;;;;;;;4968887;28;20199;-80
2022/12/08 07:14:23;;;;;;;4.40;2.80;;;;;;;;;;4966438;28;20214;-81
2022/12/08 07:16:50;;;;;;;3.07;2.73;;;;;;;;;;4961733;28;20193;-80
2022/12/08 07:19:16;;;;;;;2.77;2.53;;;;;;;;;;4974060;28;20186;-81
2022/12/08 07:21:42;;;;;;;3.13;2.50;;;;;;;;;;4960372;28;20210;-83
2022/12/08 07:24:08;;;;;;;2.90;2.50;;;;;;;;;;4987215;28;20246;-83
2022/12/08 07:26:35;;;;;;;3.10;2.53;;;;;;;;;;4978050;28;20213;-83
2022/12/08 07:29:01;;;;;;;4.43;3.00;;;;;;;;;;4986782;28;20180;-83
2022/12/08 07:31:27;;;;;;;3.70;3.20;;;;;;;;;;4971245;28;20238;-82
2022/12/08 07:33:54;;;;;;;4.70;3.17;;;;;;;;;;4959247;28;20198;-83
2022/12/08 07:36:20;;;;;;;4.17;3.20;;;;;;;;;;4933935;28;20287;-83
2022/12/08 07:38:46;;;;;;;5.20;3.60;;;;;;;;;;4961654;28;20243;-82
2022/12/08 07:41:16;;;;;;;4.63;3.57;;;;;;;;;;4989646;28;20240;-82
2022/12/08 07:43:42;;;;;;;6.47;3.50;;;;;;;;;;4958389;28;20178;-82
2022/12/08 07:46:10;;;;;;;3.93;3.20;;;;;;;;;;4959537;28;20197;-83
2022/12/08 07:48:36;;;;;;;3.57;3.20;;;;;;;;;;4963235;28;20197;-82
2022/12/08 07:51:03;;;;;;;4.80;3.17;;;;;;;;;;4960251;28;20202;-82
2022/12/08 07:53:29;;;;;;;4.20;3.30;;;;;;;;;;4985831;28;20178;-82
2022/12/08 07:55:55;;;;;;;4.47;3.43;;;;;;;;;;4974606;28;20186;-83
2022/12/08 07:58:21;;;;;;;4.93;3.60;;;;;;;;;;4958255;28;20193;-83
2022/12/08 08:00:48;;;;;;;5.00;3.53;;;;;;;;;;4973087;28;20194;-83
2022/12/08 08:03:14;;;;;;;3.70;3.30;;;;;;;;;;4939307;29;20195;-83
2022/12/08 08:05:40;;;;;;;4.67;3.67;;;;;;;;;;4982882;28;20215;-83
2022/12/08 08:08:06;;;;;;;4.97;3.80;;;;;;;;;;4957795;28;20187;-82
2022/12/08 08:10:32;;;;;;;4.17;3.67;;;;;;;;;;4956617;28;20183;-83
2022/12/08 08:12:58;;;;;;;4.67;3.83;;;;;;;;;;4971487;28;20183;-83
2022/12/08 08:15:24;;;;;;;6.07;4.37;;;;;;;;;;4981015;28;20191;-83
2022/12/08 08:17:51;;;;;;;5.70;4.63;;;;;;;;;;4938030;29;20200;-82
2022/12/08 08:20:17;;;;;;;4.60;3.67;;;;;;;;;;4967311;28;20244;-83
2022/12/08 08:22:45;;;;;;;4.70;3.40;;;;;;;;;;4957841;28;20187;-83
2022/12/08 08:25:11;;;;;;;5.17;3.53;;;;;;;;;;4957895;28;20221;-83
2022/12/08 08:27:37;;;;;;;5.10;4.07;;;;;;;;;;4957962;28;20175;-87
2022/12/08 08:30:03;;;;;;;5.00;3.80;;;;;;;;;;4988204;28;20248;-86
2022/12/08 08:32:32;;;;;;;5.30;3.97;;;;;;;;;;4989470;28;20249;-86
2022/12/08 08:34:58;;;;;;;5.10;4.20;;;;;;;;;;4974142;28;20230;-86
2022/12/08 08:37:24;;;;;;;4.63;4.00;;;;;;;;;;4971928;28;20222;-87
2022/12/08 08:39:50;;;;;;;6.20;3.97;;;;;;;;;;4982367;28;20187;-86
2022/12/08 08:42:16;;;;;;;5.73;3.97;;;;;;;;;;4959488;28;20245;-86
2022/12/08 08:44:42;;;;;;;4.43;3.73;;;;;;;;;;4981262;28;20214;-81
2022/12/08 08:47:08;;;;;;;6.30;4.13;;;;;;;;;;4988539;28;20179;-81
2022/12/08 08:49:34;;;;;;;4.03;3.60;;;;;;;;;;4977355;28;20183;-81
2022/12/08 08:52:00;;;;;;;4.63;3.80;;;;;;;;;;4975839;28;20194;-81
2022/12/08 08:54:28;;;;;;;3.67;3.37;;;;;;;;;;4939982;28;20254;-81
2022/12/08 08:56:54;;;;;;;5.40;3.47;;;;;;;;;;4973451;28;20206;-81
2022/12/08 08:59:20;;;;;;;5.07;3.87;;;;;;;;;;4975738;28;20196;-81
2022/12/08 09:01:46;;;;;;;5.13;3.30;;;;;;;;;;4977697;28;20182;-88
2022/12/08 09:04:12;;;;;;;3.60;3.30;;;;;;;;;;4953199;28;20223;-88
2022/12/08 09:06:38;;;;;;;3.43;2.83;;;;;;;;;;4981958;28;20198;-88
2022/12/08 09:09:04;;;;;;;3.97;2.60;;;;;;;;;;4972834;28;20187;-88
2022/12/08 09:11:31;;;;;;;3.70;2.57;;;;;;;;;;4972660;28;20190;-87
2022/12/08 09:13:57;;;;;;;3.03;2.20;;;;;;;;;;4977583;28;20179;-88
2022/12/08 09:16:23;;;;;;;3.07;2.30;;;;;;;;;;4945021;28;20193;-88
2022/12/08 09:18:49;;;;;;;2.83;1.90;;;;;;;;;;4963629;28;20273;-84
2022/12/08 09:21:21;;;;;;;2.73;2.20;;;;;;;;;;4957095;28;20241;-83
2022/12/08 09:23:47;;;;;;;4.07;2.03;;;;;;;;;;4988174;28;20189;-84
2022/12/08 09:26:13;;;;;;;5.57;2.00;;;;;;;;;;4988705;28;20270;-83
2022/12/08 09:28:39;;;;;;;3.53;2.10;;;;;;;;;;4978532;28;20187;-83
2022/12/08 09:31:05;;;;;;;16.53;9.97;;;;;;;;;;4973147;28;20174;-83
2022/12/08 09:33:31;;;;;;;30.87;16.10;;;;;;;;;;4970787;28;20223;-88
2022/12/08 09:36:01;;;;;;;9.00;6.10;;;;;;;;;;4960503;28;20265;-88
2022/12/08 09:38:27;;;;;;;3.53;2.97;;;;;;;;;;4961027;28;20182;-87
2022/12/08 09:40:54;;;;;;;5.57;3.10;;;;;;;;;;4945141;28;20246;-89
2022/12/08 09:43:31;;;;;;;2.93;2.63;;;;;;;;;;4961315;28;20277;-88
2022/12/08 09:45:58;;;;;;;3.60;2.53;;;;;;;;;;4960345;28;20216;-88
2022/12/08 09:48:28;;;;;;;3.87;2.60;;;;;;;;;;4983225;28;20191;-88
2022/12/08 09:50:55;;;;;;;2.60;2.40;;;;;;;;;;4941424;29;20190;-84
2022/12/08 09:53:24;;;;;;;3.37;2.80;;;;;;;;;;4973385;28;20198;-84
2022/12/08 09:55:58;;;;;;;3.73;3.40;;;;;;;;;;4976183;28;20187;-84
2022/12/08 09:58:44;;;;;;;3.30;3.00;;;;;;;;;;4975434;28;20196;-83
2022/12/08 10:01:11;;;;;;;3.87;3.40;;;;;;;;;;4977668;28;20198;-84
2022/12/08 10:03:37;;;;;;;3.33;3.03;;;;;;;;;;4957710;28;20194;-81
2022/12/08 10:06:06;;;;;;;5.00;3.63;;;;;;;;;;4973023;28;20215;-81
2022/12/08 10:08:43;;;;;;;3.60;3.30;;;;;;;;;;4957955;28;20222;-81
2022/12/08 10:11:12;;;;;;;4.33;3.70;;;;;;;;;;4973052;28;20176;-81
2022/12/08 10:13:41;;;;;;;4.10;3.70;;;;;;;;;;4973247;28;20211;-81
2022/12/08 10:16:12;;;;;;;3.87;3.47;;;;;;;;;;4972950;28;20191;-81
2022/12/08 10:18:38;;;;;;;5.67;3.47;;;;;;;;;;4973183;28;20183;-81
2022/12/08 10:21:12;;;;;;;4.00;3.60;;;;;;;;;;4987896;28;20194;-84
2022/12/08 10:23:40;;;;;;;4.20;3.50;;;;;;;;;;4983226;28;20180;-82
2022/12/08 10:26:10;;;;;;;3.03;2.80;;;;;;;;;;4970934;28;20220;-81
2022/12/08 10:28:36;;;;;;;3.63;3.23;;;;;;;;;;4952539;28;20241;-80
2022/12/08 10:31:03;;;;;;;3.37;3.00;;;;;;;;;;4956244;28;20191;-81
2022/12/08 10:33:31;;;;;;;3.70;3.23;;;;;;;;;;4958840;28;20223;-81
2022/12/08 10:35:58;;;;;;;4.90;3.00;;;;;;;;;;4972855;28;20194;-81
2022/12/08 10:38:24;;;;;;;3.07;2.83;;;;;;;;;;4956472;29;20251;-81
2022/12/08 10:40:51;;;;;;;3.10;2.80;;;;;;;;;;4973488;28;20202;-82
2022/12/08 10:43:21;;;;;;;3.03;2.73;;;;;;;;;;4986399;28;20190;-83
2022/12/08 10:45:47;;;;;;;4.00;2.90;;;;;;;;;;4989247;23;20239;-82
2022/12/08 10:48:18;;;;;;;3.03;2.73;;;;;;;;;;4963578;28;20185;-83
2022/12/08 10:50:57;;;;;;;4.37;2.90;;;;;;;;;;4968189;28;20186;-83
2022/12/08 10:53:25;;;;;;;2.57;2.37;;;;;;;;;;4977844;28;20189;-82
2022/12/08 10:55:57;;;;;;;2.10;1.90;;;;;;;;;;4976040;28;20194;-82
2022/12/08 10:58:24;;;;;;;2.97;2.00;;;;;;;;;;4961898;28;20191;-79
2022/12/08 11:00:54;;;;;;;2.37;1.60;;;;;;;;;;4968801;28;20186;-79
2022/12/08 11:03:26;;;;;;;1.83;1.70;;;;;;;;;;4993559;28;20217;-81
2022/12/08 11:05:55;;;;;;;2.60;1.60;;;;;;;;;;4981666;28;20286;-80
2022/12/08 11:08:21;;;;;;;5.57;3.87;;;;;;;;;;4995641;28;20178;-80
2022/12/08 11:10:47;;;;;;;10.77;5.87;;;;;;;;;;4978921;28;20205;-80
2022/12/08 11:13:22;;;;;;;21.60;12.83;;;;;;;;;;4978329;28;20220;-80
2022/12/08 11:15:49;;;;;;;19.37;14.43;;;;;;;;;;4977839;28;20184;-80
2022/12/08 11:18:23;;;;;;;7.30;5.90;;;;;;;;;;4978232;28;20185;-80
2022/12/08 11:20:56;;;;;;;7.07;5.13;;;;;;;;;;4972140;28;20255;-81
2022/12/08 11:23:24;;;;;;;7.97;6.60;;;;;;;;;;4970009;28;20249;-80
2022/12/08 11:25:51;;;;;;;9.87;8.53;;;;;;;;;;4977852;28;20220;-80
2022/12/08 11:28:20;;;;;;;9.93;8.50;;;;;;;;;;4978182;28;20177;-80
2022/12/08 11:30:49;;;;;;;4.30;3.83;;;;;;;;;;4978279;28;20182;-88
2022/12/08 11:33:18;;;;;;;6.47;5.07;;;;;;;;;;4995465;28;20182;-87
2022/12/08 11:35:45;;;;;;;6.83;6.10;;;;;;;;;;4975276;28;20252;-88
2022/12/08 11:38:13;;;;;;;7.93;7.13;;;;;;;;;;4980682;28;20265;-88
2022/12/08 11:40:40;;;;;;;3.97;3.40;;;;;;;;;;4994332;28;20186;-88
2022/12/08 11:43:12;;;;;;;5.20;4.00;;;;;;;;;;4995508;28;20186;-88
2022/12/08 11:45:39;;;;;;;3.50;3.20;;;;;;;;;;4976612;28;20229;-88
2022/12/08 11:48:15;;;;;;;4.23;3.30;;;;;;;;;;4976308;28;20194;-80
2022/12/08 11:50:57;;;;;;;4.47;3.20;;;;;;;;;;4973010;28;20182;-80
2022/12/08 11:53:42;;;;;;;4.27;3.60;;;;;;;;;;4977628;28;20209;-80
2022/12/08 11:56:16;;;;;;;6.13;3.93;;;;;;;;;;4972965;28;20190;-79
2022/12/08 11:58:48;;;;;;;3.97;3.67;;;;;;;;;;4991291;28;20201;-80
2022/12/08 12:01:25;;;;;;;5.53;3.93;;;;;;;;;;4978689;28;20213;-80
2022/12/08 12:04:06;;;;;;;5.17;4.47;;;;;;;;;;4995568;28;20189;-87
2022/12/08 12:06:44;;;;;;;4.80;4.10;;;;;;;;;;4962480;28;20166;-88
2022/12/08 12:09:13;;;;;;;5.13;4.63;;;;;;;;;;4978104;28;20175;-88
2022/12/08 12:14:42;;;;;;;5.53;4.90;;;;;;;;;;4994945;28;20184;-88
2022/12/08 12:17:27;;;;;;;5.57;4.70;;;;;;;;;;4991260;28;20197;-88
2022/12/08 12:19:53;;;;;;;5.30;4.27;;;;;;;;;;4968211;28;20217;-86
2022/12/08 12:22:21;;;;;;;5.20;3.93;;;;;;;;;;4960339;28;20212;-79
2022/12/08 12:24:49;;;;;;;3.97;3.53;;;;;;;;;;4977032;28;20293;-79
2022/12/08 12:27:15;;;;;;;4.47;3.10;;;;;;;;;;4981567;28;20182;-79
2022/12/08 12:29:45;;;;;;;3.77;3.17;;;;;;;;;;4977519;28;20182;-79
2022/12/08 12:32:12;;;;;;;3.40;3.10;;;;;;;;;;4975843;28;20189;-79
2022/12/08 12:34:45;;;;;;;3.10;2.80;;;;;;;;;;4994513;28;20182;-79
2022/12/08 12:37:35;;;;;;;3.87;2.70;;;;;;;;;;4968471;28;20186;-87
2022/12/08 12:40:06;;;;;;;3.13;2.47;;;;;;;;;;4986132;28;20225;-86
2022/12/08 12:42:32;;;;;;;3.93;2.70;;;;;;;;;;4976369;28;20190;-86
2022/12/08 12:45:16;;;;;;;3.80;2.53;;;;;;;;;;4976648;28;20205;-86
2022/12/08 12:47:45;;;;;;;3.13;2.80;;;;;;;;;;4981577;28;20218;-86
2022/12/08 12:50:13;;;;;;;4.70;2.80;;;;;;;;;;4960374;28;20182;-86
2022/12/08 12:52:39;;;;;;;4.97;3.30;;;;;;;;;;4988201;28;20205;-87
2022/12/08 12:55:08;;;;;;;5.00;2.80;;;;;;;;;;4976804;28;20289;-79
2022/12/08 12:57:51;;;;;;;4.70;2.90;;;;;;;;;;4975502;28;20186;-79
2022/12/08 13:00:18;;;;;;;3.63;2.60;;;;;;;;;;4974948;28;20281;-80
2022/12/08 13:02:44;;;;;;;3.80;2.80;;;;;;;;;;4976814;28;20193;-79
2022/12/08 13:05:10;;;;;;;2.80;2.50;;;;;;;;;;4962535;28;20281;-79
2022/12/08 13:07:43;;;;;;;3.37;2.20;;;;;;;;;;4984612;28;20190;-79
2022/12/08 13:10:09;;;;;;;2.17;1.97;;;;;;;;;;4996477;28;20186;-80
2022/12/08 13:12:35;;;;;;;3.60;2.13;;;;;;;;;;4997410;28;20174;-81
2022/12/08 13:15:05;;;;;;;4.00;2.03;;;;;;;;;;4964270;28;20190;-81
2022/12/08 13:17:33;;;;;;;4.37;2.70;;;;;;;;;;4980753;28;20182;-81
2022/12/08 13:20:02;;;;;;;4.17;2.30;;;;;;;;;;4974693;28;20269;-81
2022/12/08 13:22:47;;;;;;;2.43;2.13;;;;;;;;;;4976418;28;20182;-81
2022/12/08 13:25:32;;;;;;;3.80;2.60;;;;;;;;;;4961238;28;20326;-81
2022/12/08 13:28:07;;;;;;;1.90;1.40;;;;;;;;;;4960930;28;20166;-81
2022/12/08 13:30:54;;;;;;;3.87;1.77;;;;;;;;;;4961047;28;20205;-81
2022/12/08 13:33:37;;;;;;;1.37;1.20;;;;;;;;;;4966935;28;20186;-81
2022/12/08 13:36:21;;;;;;;4.63;1.40;;;;;;;;;;4961020;28;20209;-81
2022/12/08 13:38:49;;;;;;;3.27;1.50;;;;;;;;;;4969994;28;20206;-81
2022/12/08 13:41:18;;;;;;;3.33;1.63;;;;;;;;;;4986891;28;20194;-81
2022/12/08 13:43:48;;;;;;;2.83;1.60;;;;;;;;;;4983147;28;20194;-87
2022/12/08 13:46:15;;;;;;;4.13;2.30;;;;;;;;;;4977416;28;20321;-86
2022/12/08 13:48:49;;;;;;;2.87;1.30;;;;;;;;;;4995615;28;20190;-86
2022/12/08 13:51:22;;;;;;;2.90;1.40;;;;;;;;;;4994342;28;20180;-85
2022/12/08 13:54:00;;;;;;;3.03;1.70;;;;;;;;;;4977403;28;20210;-86
2022/12/08 13:56:27;;;;;;;2.80;1.50;;;;;;;;;;4987709;28;20209;-87
2022/12/08 13:59:06;;;;;;;2.87;1.50;;;;;;;;;;4994751;28;20182;-86
2022/12/08 14:01:32;;;;;;;2.00;1.70;;;;;;;;;;4982214;28;20197;-80
2022/12/08 14:03:59;;;;;;;2.70;1.43;;;;;;;;;;4984951;28;20186;-80
2022/12/08 14:06:28;;;;;;;2.30;1.63;;;;;;;;;;4994669;28;20281;-82
2022/12/08 14:08:57;;;;;;;3.60;2.80;;;;;;;;;;4994336;28;20243;-82
2022/12/08 14:11:32;;;;;;;2.30;1.67;;;;;;;;;;4987820;28;20244;-82
2022/12/08 14:14:11;;;;;;;3.30;1.80;;;;;;;;;;4985021;28;20277;-82
2022/12/08 14:16:42;;;;;;;3.20;1.83;;;;;;;;;;4985285;28;20174;-84
2022/12/08 14:19:16;;;;;;;1.73;1.53;;;;;;;;;;4994539;28;20178;-85
2022/12/08 14:21:46;;;;;;;4.03;2.20;;;;;;;;;;4980811;28;20193;-86
2022/12/08 14:24:12;;;;;;;4.57;1.90;;;;;;;;;;4976726;28;20213;-86
2022/12/08 14:26:38;;;;;;;5.63;2.00;;;;;;;;;;4972808;28;20190;-85
2022/12/08 14:29:06;;;;;;;2.63;1.90;;;;;;;;;;4995555;28;20186;-87
2022/12/08 14:31:32;;;;;;;3.23;2.03;;;;;;;;;;4982957;28;20268;-83
2022/12/08 14:33:58;;;;;;;4.47;2.40;;;;;;;;;;4978976;28;20236;-83
2022/12/08 14:36:24;;;;;;;5.73;2.40;;;;;;;;;;4979587;28;20193;-83
2022/12/08 14:38:52;;;;;;;4.67;2.20;;;;;;;;;;4995914;28;20182;-83
2022/12/08 14:41:24;;;;;;;2.80;2.50;;;;;;;;;;4995942;28;20170;-83
2022/12/08 14:43:58;;;;;;;4.17;2.60;;;;;;;;;;4995872;28;20181;-83
2022/12/08 14:46:23;;;;;;;4.43;2.50;;;;;;;;;;4990775;28;20253;-83
2022/12/08 14:48:50;;;;;;;3.23;2.30;;;;;;;;;;4975245;28;20210;-83
2022/12/08 14:51:21;;;;;;;2.50;2.30;;;;;;;;;;4964463;28;20190;-83